createdAt,value
2023-01-19T00:04:21.888Z,98663.11
2023-01-19T00:09:24.875Z,98688.56
2023-01-19T00:14:27.806Z,98696.87
2023-01-19T00:19:30.703Z,98706.58
2023-01-19T00:24:33.917Z,98725.44
2023-01-19T00:29:36.930Z,98739.68
2023-01-19T00:34:43.144Z,98750.85
2023-01-19T00:39:46.006Z,98762.75
2023-01-19T00:44:48.908Z,98772.63
2023-01-19T00:49:51.813Z,98785.57
2023-01-19T00:54:54.616Z,98793.55
2023-01-19T00:59:57.519Z,98793.52
2023-01-19T01:05:03.440Z,98802.38
2023-01-19T01:10:11.757Z,98807.58
2023-01-19T01:15:16.148Z,98806.03
2023-01-19T01:20:23.371Z,98811.61
2023-01-19T01:25:28.615Z,98827.31
2023-01-19T01:30:31.534Z,98836.82
2023-01-19T01:35:34.541Z,98849.09
2023-01-19T01:40:40.960Z,98857.20
2023-01-19T01:45:44.131Z,98864.85
2023-01-19T01:51:12.750Z,98874.22
2023-01-19T01:56:20.059Z,98878.08
2023-01-19T02:01:41.645Z,98886.52
2023-01-19T02:07:03.748Z,98901.16
2023-01-19T02:12:26.107Z,98904.83
2023-01-19T02:17:29.113Z,98901.45
2023-01-19T02:22:38.774Z,98905.77
2023-01-19T02:27:42.808Z,98913.66
2023-01-19T02:32:46.023Z,98928.02
2023-01-19T02:37:49.208Z,98935.70
2023-01-19T02:42:56.952Z,98932.81
2023-01-19T02:47:59.954Z,98927.50
2023-01-19T02:53:25.387Z,98910.70
2023-01-19T02:58:48.158Z,98918.48
2023-01-19T03:04:00.794Z,98920.80
2023-01-19T03:09:15.677Z,98918.65
2023-01-19T03:14:25.893Z,98927.09
2023-01-19T03:19:40.598Z,98923.83
2023-01-19T03:24:46.435Z,98916.59
2023-01-19T03:29:54.130Z,98904.08
2023-01-19T03:35:01.546Z,98913.79
2023-01-19T03:40:05.803Z,98915.52
2023-01-19T03:45:10.761Z,98903.91
2023-01-19T03:50:24.304Z,98909.36
2023-01-19T03:55:27.379Z,98905.58
2023-01-19T04:00:31.112Z,98894.64
2023-01-19T04:05:34.220Z,98892.12
2023-01-19T04:10:37.644Z,98895.70
2023-01-19T04:15:40.576Z,98906.54
2023-01-19T04:20:43.432Z,98910.81
2023-01-19T04:25:46.440Z,98913.83
2023-01-19T04:30:55.157Z,98917.98
2023-01-19T04:35:58.495Z,98930.98
2023-01-19T04:41:01.404Z,98942.98
2023-01-19T04:46:04.423Z,98945.11
2023-01-19T04:51:07.518Z,98948.14
2023-01-19T04:56:11.644Z,98958.55
2023-01-19T05:01:14.770Z,98971.16
2023-01-19T05:06:17.873Z,98967.10
2023-01-19T05:11:21.180Z,98964.85
2023-01-19T05:16:24.464Z,98966.83
2023-01-19T05:21:28.937Z,98972.25
2023-01-19T05:26:31.839Z,98971.05
2023-01-19T05:31:34.933Z,98980.90
2023-01-19T05:36:38.162Z,98985.99
2023-01-19T05:41:42.196Z,98993.98
2023-01-19T05:46:45.094Z,99001.63
2023-01-19T05:51:48.104Z,99015.63
2023-01-19T05:56:51.003Z,99024.56
2023-01-19T06:01:54.572Z,99028.63
2023-01-19T06:06:57.726Z,99042.38
2023-01-19T06:12:00.635Z,99056.27
2023-01-19T06:17:04.051Z,99063.70
2023-01-19T06:22:06.952Z,99075.59
2023-01-19T06:27:09.859Z,99085.06
2023-01-19T06:32:12.803Z,99090.33
2023-01-19T06:37:16.894Z,99094.80
2023-01-19T06:42:19.803Z,99109.30
2023-01-19T06:47:22.705Z,99112.11
2023-01-19T06:52:25.924Z,99113.46
2023-01-19T06:57:28.821Z,99115.52
2023-01-19T07:02:31.908Z,99119.12
2023-01-19T07:07:36.522Z,99127.20
2023-01-19T07:12:39.786Z,99139.91
2023-01-19T07:17:43.730Z,99150.77
2023-01-19T07:22:46.822Z,99158.06
2023-01-19T07:27:49.677Z,99180.02
2023-01-19T07:32:56.215Z,99197.11
2023-01-19T07:37:59.526Z,99205.02
2023-01-19T07:43:03.335Z,99202.05
2023-01-19T07:48:06.963Z,99209.48
2023-01-19T07:53:12.034Z,99215.43
2023-01-19T07:58:15.157Z,99209.07
2023-01-19T08:03:18.968Z,99208.50
2023-01-19T08:08:21.867Z,99211.83
2023-01-19T08:13:25.080Z,99209.29
2023-01-19T08:18:28.090Z,99212.14
2023-01-19T08:23:31.426Z,99209.02
2023-01-19T08:28:34.410Z,99210.36
2023-01-19T08:33:37.308Z,99205.15
2023-01-19T08:38:43.695Z,99209.98
2023-01-19T08:43:46.709Z,99211.08
2023-01-19T08:48:50.577Z,99227.68
2023-01-19T08:53:53.532Z,99234.04
2023-01-19T08:59:08.254Z,99237.03
2023-01-19T09:04:12.469Z,99244.42
2023-01-19T09:09:15.458Z,99243.42
2023-01-19T09:14:18.363Z,99251.39
2023-01-19T09:19:21.381Z,99256.02
2023-01-19T09:24:24.375Z,99250.34
2023-01-19T09:29:27.384Z,99248.42
2023-01-19T09:34:31.620Z,99246.59
2023-01-19T09:39:34.736Z,99250.42
2023-01-19T09:44:37.942Z,99256.56
2023-01-19T09:49:51.489Z,99258.13
2023-01-19T09:54:57.059Z,99256.31
2023-01-19T10:00:00.164Z,99252.59
2023-01-19T10:05:13.515Z,99250.56
2023-01-19T10:10:23.893Z,99253.23
2023-01-19T10:15:32.847Z,99249.86
2023-01-19T10:20:41.637Z,99260.42
2023-01-19T10:25:45.443Z,99265.70
2023-01-19T10:30:49.095Z,99267.58
2023-01-19T10:35:52.043Z,99268.97
2023-01-19T10:41:05.247Z,99262.29
2023-01-19T10:46:20.232Z,99264.15
2023-01-19T10:51:23.661Z,99268.14
2023-01-19T10:56:38.103Z,99262.59
2023-01-19T11:01:41.139Z,99254.55
2023-01-19T11:06:44.275Z,99248.15
2023-01-19T11:11:52.593Z,99236.04
2023-01-19T11:16:58.267Z,99241.89
2023-01-19T11:22:22.954Z,99243.11
2023-01-19T11:27:27.222Z,99238.52
2023-01-19T11:32:30.339Z,99238.26
2023-01-19T11:37:35.346Z,99236.44
2023-01-19T11:42:38.803Z,99238.04
2023-01-19T11:47:45.097Z,99238.91
2023-01-19T11:53:06.121Z,99235.43
2023-01-19T11:58:16.188Z,99235.08
2023-01-19T12:03:44.394Z,99233.47
2023-01-19T12:08:49.852Z,99232.80
2023-01-19T12:13:54.029Z,99230.61
2023-01-19T12:19:04.669Z,99227.64
2023-01-19T12:24:23.701Z,99226.96
2023-01-19T12:29:32.091Z,99221.27
2023-01-19T12:34:46.649Z,99226.52
2023-01-19T12:39:50.557Z,99229.34
2023-01-19T12:45:15.323Z,99224.10
2023-01-19T12:50:23.496Z,99217.83
2023-01-19T12:55:33.467Z,99219.22
2023-01-19T13:00:43.072Z,99222.31
2023-01-19T13:05:51.181Z,99213.27
2023-01-19T13:11:00.492Z,99218.45
2023-01-19T13:16:19.152Z,99215.52
2023-01-19T13:21:34.427Z,99213.90
2023-01-19T13:26:40.947Z,99220.70
2023-01-19T13:31:46.120Z,99224.48
2023-01-19T13:36:54.920Z,99220.30
2023-01-19T13:42:02.895Z,99225.88
2023-01-19T13:47:12.615Z,99225.34
2023-01-19T13:52:17.481Z,99226.60
2023-01-19T13:57:24.549Z,99226.52
2023-01-19T14:02:27.666Z,99228.05
2023-01-19T14:07:30.882Z,99234.59
2023-01-19T14:12:33.772Z,99245.02
2023-01-19T14:17:36.934Z,99248.41
2023-01-19T14:22:43.206Z,99251.95
2023-01-19T14:27:46.572Z,99246.06
2023-01-19T14:32:49.580Z,99253.69
2023-01-19T14:37:52.789Z,99260.96
2023-01-19T14:43:00.299Z,99264.73
2023-01-19T14:48:06.893Z,99270.29
2023-01-19T14:53:25.817Z,99270.66
2023-01-19T14:58:32.345Z,99275.97
2023-01-19T15:03:43.982Z,99278.27
2023-01-19T15:08:50.345Z,99279.23
2023-01-19T15:13:54.599Z,99283.10
2023-01-19T15:18:57.690Z,99285.88
2023-01-19T15:24:01.229Z,99283.35
2023-01-19T15:29:17.029Z,99281.34
2023-01-19T15:34:19.931Z,99280.86
2023-01-19T15:39:23.349Z,99283.27
2023-01-19T15:44:26.257Z,99284.07
2023-01-19T15:49:31.121Z,99288.34
2023-01-19T15:54:34.004Z,99294.67
2023-01-19T15:59:37.315Z,99306.14
2023-01-19T16:04:40.221Z,99311.44
2023-01-19T16:09:43.120Z,99313.75
2023-01-19T16:14:46.027Z,99320.18
2023-01-19T16:19:49.035Z,99323.73
2023-01-19T16:24:53.277Z,99325.77
2023-01-19T16:29:57.313Z,99326.39
2023-01-19T16:35:00.601Z,99324.50
2023-01-19T16:40:04.421Z,99327.43
2023-01-19T16:45:08.217Z,99329.55
2023-01-19T16:50:12.053Z,99329.98
2023-01-19T16:55:15.208Z,99329.44
2023-01-19T17:00:19.144Z,99328.21
2023-01-19T17:05:22.652Z,99330.52
2023-01-19T17:10:25.555Z,99330.35
2023-01-19T17:15:28.464Z,99330.36
2023-01-19T17:20:34.126Z,99332.77
2023-01-19T17:25:37.038Z,99332.81
2023-01-19T17:30:39.901Z,99332.17
2023-01-19T17:35:43.228Z,99331.23
2023-01-19T17:40:46.765Z,99330.92
2023-01-19T17:45:49.781Z,99334.19
2023-01-19T17:50:54.415Z,99332.96
2023-01-19T17:56:07.230Z,99327.99
2023-01-19T18:01:16.391Z,99328.88
2023-01-19T18:06:20.157Z,99324.83
2023-01-19T18:11:23.134Z,99320.44
2023-01-19T18:16:28.905Z,99317.89
2023-01-19T18:21:31.813Z,99315.00
2023-01-19T18:26:35.417Z,99313.45
2023-01-19T18:31:38.387Z,99314.86
2023-01-19T18:36:41.443Z,99313.20
2023-01-19T18:41:44.552Z,99311.30
2023-01-19T18:46:47.453Z,99312.13
2023-01-19T18:51:50.355Z,99313.27
2023-01-19T18:56:53.262Z,99320.77
2023-01-19T19:01:56.306Z,99320.27
2023-01-19T19:06:59.433Z,99315.91
2023-01-19T19:12:02.690Z,99318.95
2023-01-19T19:17:05.810Z,99320.95
2023-01-19T19:22:08.806Z,99326.31
2023-01-19T19:27:14.492Z,99331.56
2023-01-19T19:32:20.612Z,99327.23
2023-01-19T19:37:24.059Z,99328.34
2023-01-19T19:42:30.265Z,99325.73
2023-01-19T19:47:34.042Z,99327.39
2023-01-19T19:52:41.444Z,99332.33
2023-01-19T19:57:44.913Z,99337.83
2023-01-19T20:02:50.853Z,99344.68
2023-01-19T20:07:53.927Z,99346.20
2023-01-19T20:12:56.797Z,99341.38
2023-01-19T20:17:59.695Z,99338.08
2023-01-19T20:23:02.604Z,99339.61
2023-01-19T20:28:05.503Z,99336.89
2023-01-19T20:33:08.411Z,99341.55
2023-01-19T20:38:11.313Z,99344.08
2023-01-19T20:43:14.216Z,99343.10
2023-01-19T20:48:17.121Z,99344.45
2023-01-19T20:53:20.332Z,99345.00
2023-01-19T20:58:23.359Z,99348.44
2023-01-19T21:03:26.344Z,99351.21
2023-01-19T21:08:29.252Z,99356.37
2023-01-19T21:13:32.571Z,99364.64
2023-01-19T21:18:35.580Z,99368.09
2023-01-19T21:23:38.575Z,99367.92
2023-01-19T21:28:42.105Z,99371.55
2023-01-19T21:33:45.412Z,99375.45
2023-01-19T21:38:48.975Z,99379.90
2023-01-19T21:43:52.051Z,99385.88
2023-01-19T21:49:02.846Z,99392.99
2023-01-19T21:54:06.851Z,99401.92
2023-01-19T21:59:15.150Z,99405.75
2023-01-19T22:04:18.195Z,99406.36
2023-01-19T22:09:21.198Z,99406.27
2023-01-19T22:14:24.104Z,99407.79
2023-01-19T22:19:27.317Z,99410.96
2023-01-19T22:24:30.217Z,99419.97
2023-01-19T22:29:33.122Z,99420.45
2023-01-19T22:34:36.132Z,99419.23
2023-01-19T22:39:39.083Z,99416.34
2023-01-19T22:44:42.243Z,99422.86
2023-01-19T22:49:45.157Z,99424.40
2023-01-19T22:54:48.052Z,99418.61
2023-01-19T22:59:51.186Z,99425.69
2023-01-19T23:04:54.170Z,99433.65
2023-01-19T23:09:57.081Z,99436.78
2023-01-19T23:14:59.981Z,99448.10
2023-01-19T23:20:04.958Z,99456.97
2023-01-19T23:25:08.883Z,99458.84
2023-01-19T23:30:12.538Z,99464.11
2023-01-19T23:35:16.292Z,99471.46
2023-01-19T23:40:20.031Z,99468.11
2023-01-19T23:45:22.876Z,99475.67
2023-01-19T23:50:25.838Z,99480.17
2023-01-19T23:55:28.827Z,99481.23
